Time;durP1;ratioP1;P1;durP2;ratioP2;P2;SDS_P1;SDS_P2;PMS_P1;PMS_P2;Temp;Humidity;BMP_temperature;BMP_pressure;BME280_temperature;BME280_humidity;BME280_pressure;Samples;Min_cycle;Max_cycle;Signal;HPM_P1;HPM_P2
2022/03/19 00:02:24;;;;;;;15.13;3.60;;;3.40;99.90;;;;;;5074028;28;20408;-76
2022/03/19 00:04:50;;;;;;;12.27;3.35;;;3.30;99.90;;;;;;5074083;28;20048;-75
2022/03/19 00:07:16;;;;;;;12.75;3.28;;;3.30;99.90;;;;;;5074931;28;20610;-76
2022/03/19 00:09:42;;;;;;;16.88;3.88;;;3.50;99.90;;;;;;5075635;28;20182;-76
2022/03/19 00:12:08;;;;;;;14.32;3.83;;;3.30;99.90;;;;;;5075633;28;20063;-71
2022/03/19 00:14:34;;;;;;;15.98;3.15;;;3.30;99.90;;;;;;5075579;28;20470;-76
2022/03/19 00:17:00;;;;;;;12.73;3.30;;;3.80;99.90;;;;;;5075560;28;20104;-72
2022/03/19 00:19:27;;;;;;;14.30;3.25;;;3.30;99.90;;;;;;5073840;28;20098;-77
2022/03/19 00:21:53;;;;;;;12.52;3.30;;;3.30;99.90;;;;;;5075570;28;20044;-75
2022/03/19 00:24:19;;;;;;;11.85;3.28;;;3.20;99.90;;;;;;5074200;28;20488;-75
2022/03/19 00:26:44;;;;;;;13.13;3.28;;;3.20;99.90;;;;;;5075534;28;20090;-72
2022/03/19 00:29:10;;;;;;;18.33;4.00;;;3.20;99.90;;;;;;5075271;28;20036;-72
2022/03/19 00:31:36;;;;;;;15.52;3.72;;;3.20;99.90;;;;;;5075420;28;20040;-72
2022/03/19 00:34:02;;;;;;;13.73;3.60;;;3.20;99.90;;;;;;5074049;28;20408;-74
2022/03/19 00:36:28;;;;;;;14.20;3.17;;;3.10;99.90;;;;;;5073537;28;20123;-76
2022/03/19 00:38:54;;;;;;;10.98;2.60;;;3.10;99.90;;;;;;5075296;28;20444;-72
2022/03/19 00:41:20;;;;;;;12.30;3.35;;;3.00;99.90;;;;;;5074250;28;20400;-71
2022/03/19 00:43:46;;;;;;;16.25;3.33;;;3.00;99.90;;;;;;5075049;28;20549;-77
2022/03/19 00:46:13;;;;;;;12.10;3.00;;;2.90;99.90;;;;;;5074984;28;20044;-74
2022/03/19 00:48:40;;;;;;;8.05;2.45;;;2.90;99.90;;;;;;5073782;28;20056;-77
2022/03/19 00:51:06;;;;;;;10.95;2.95;;;2.90;99.90;;;;;;5074604;28;20040;-76
2022/03/19 00:53:31;;;;;;;10.38;3.05;;;2.80;99.90;;;;;;5074892;28;20040;-76
2022/03/19 00:55:57;;;;;;;11.10;2.95;;;2.80;99.90;;;;;;5073886;28;20135;-72
2022/03/19 00:58:22;;;;;;;11.00;2.63;;;2.70;99.90;;;;;;5074722;28;20131;-72
2022/03/19 01:00:48;;;;;;;10.50;2.60;;;3.00;99.90;;;;;;5074766;28;20123;-71
2022/03/19 01:03:15;;;;;;;13.25;2.80;;;2.60;99.90;;;;;;5074879;28;20041;-76
2022/03/19 01:05:42;;;;;;;12.65;3.08;;;2.60;99.90;;;;;;5074857;28;20084;-73
2022/03/19 01:08:08;;;;;;;14.25;3.15;;;2.60;99.90;;;;;;5074487;28;20045;-77
2022/03/19 01:10:35;;;;;;;13.23;2.90;;;2.60;99.90;;;;;;5074606;28;20045;-74
2022/03/19 01:13:03;;;;;;;9.45;2.67;;;2.70;99.90;;;;;;5074150;28;20531;-75
2022/03/19 01:15:29;;;;;;;16.23;3.35;;;2.60;99.90;;;;;;5074326;28;20052;-73
2022/03/19 01:17:55;;;;;;;10.80;3.15;;;2.60;99.90;;;;;;5074714;28;20384;-73
2022/03/19 01:20:21;;;;;;;11.38;3.20;;;2.60;99.90;;;;;;5074657;28;20127;-72
2022/03/19 01:22:48;;;;;;;10.90;2.50;;;2.50;99.90;;;;;;5072744;28;20067;-76
2022/03/19 01:25:16;;;;;;;9.43;2.47;;;2.50;99.90;;;;;;5073125;28;20052;-76
2022/03/19 01:27:43;;;;;;;8.70;3.05;;;2.40;99.90;;;;;;5074263;28;20419;-73
2022/03/19 01:30:11;;;;;;;10.13;2.70;;;2.40;99.90;;;;;;5074141;28;20059;-75
2022/03/19 01:32:37;;;;;;;11.40;2.70;;;2.30;99.90;;;;;;5072919;28;20048;-76
2022/03/19 01:35:03;;;;;;;10.38;2.58;;;2.30;99.90;;;;;;5074181;28;20051;-74
2022/03/19 01:37:29;;;;;;;11.77;3.35;;;2.30;99.90;;;;;;5072713;28;20051;-75
2022/03/19 01:39:55;;;;;;;11.50;2.58;;;2.30;99.90;;;;;;5073707;28;20037;-72
2022/03/19 01:42:36;;;;;;;11.23;2.50;;;2.30;99.90;;;;;;5073790;28;20048;-73
2022/03/19 01:45:04;;;;;;;13.02;2.90;;;2.30;99.90;;;;;;5073838;28;20500;-76
2022/03/19 01:47:30;;;;;;;8.23;2.50;;;2.20;99.90;;;;;;5074041;28;20049;-75
2022/03/19 01:49:57;;;;;;;10.63;2.50;;;2.20;99.90;;;;;;5072947;28;20399;-76
2022/03/19 01:52:23;;;;;;;13.02;3.25;;;2.10;99.90;;;;;;5073948;28;20450;-74
2022/03/19 01:54:51;;;;;;;8.98;2.63;;;2.10;99.90;;;;;;5073692;28;20044;-77
2022/03/19 01:57:23;;;;;;;12.50;3.13;;;2.10;99.90;;;;;;5072634;28;20105;-71
2022/03/19 01:59:50;;;;;;;10.68;2.95;;;2.10;99.90;;;;;;5072471;28;20048;-76
2022/03/19 02:02:16;;;;;;;11.48;3.00;;;2.10;99.90;;;;;;5073764;28;20043;-72
2022/03/19 02:04:42;;;;;;;9.48;2.53;;;2.10;99.90;;;;;;5072227;28;20052;-76
2022/03/19 02:07:11;;;;;;;10.90;2.63;;;2.10;99.90;;;;;;5072598;28;20127;-76
2022/03/19 02:09:38;;;;;;;11.85;2.97;;;2.10;99.90;;;;;;5071826;28;20503;-75
2022/03/19 02:12:06;;;;;;;10.35;2.88;;;2.50;99.90;;;;;;5072359;28;20045;-77
2022/03/19 02:14:36;;;;;;;9.95;2.75;;;2.00;99.90;;;;;;5073565;28;20169;-76
2022/03/19 02:17:03;;;;;;;9.05;2.33;;;2.00;99.90;;;;;;5072330;28;20181;-76
2022/03/19 02:19:28;;;;;;;10.52;2.70;;;2.00;99.90;;;;;;5073377;28;20051;-76
2022/03/19 02:21:54;;;;;;;10.23;2.55;;;2.00;99.90;;;;;;5073193;28;20419;-77
2022/03/19 02:27:05;;;;;;;8.80;2.72;;;1.90;99.90;;;;;;5071510;28;20129;-77
2022/03/19 02:29:31;;;;;;;13.18;3.08;;;1.90;99.90;;;;;;5072165;28;20067;-76
2022/03/19 02:32:07;;;;;;;9.70;2.85;;;1.90;99.90;;;;;;5071739;28;20071;-77
2022/03/19 02:34:35;;;;;;;11.75;3.22;;;1.90;99.90;;;;;;5071977;28;20420;-72
2022/03/19 02:37:01;;;;;;;15.75;3.45;;;1.90;99.90;;;;;;5073006;28;20106;-70
2022/03/19 02:39:30;;;;;;;10.63;2.78;;;1.90;99.90;;;;;;5072843;28;20480;-71
2022/03/19 02:41:59;;;;;;;10.23;3.38;;;2.20;99.90;;;;;;5072776;28;20457;-71
2022/03/19 02:44:24;;;;;;;8.88;2.70;;;1.90;99.90;;;;;;5071482;28;20526;-72
2022/03/19 02:46:55;;;;;;;12.63;3.92;;;1.90;99.90;;;;;;5073066;28;20040;-71
2022/03/19 02:49:24;;;;;;;11.15;3.08;;;1.90;99.90;;;;;;5072926;28;20049;-71
2022/03/19 02:51:52;;;;;;;10.57;3.67;;;1.90;99.90;;;;;;5072918;28;20051;-71
2022/03/19 02:54:22;;;;;;;13.13;2.97;;;1.90;99.90;;;;;;5073160;28;20041;-70
2022/03/19 02:56:49;;;;;;;11.30;2.78;;;1.90;99.90;;;;;;5071430;28;20044;-72
2022/03/19 02:59:23;;;;;;;10.82;2.83;;;1.90;99.90;;;;;;5072828;28;20055;-71
2022/03/19 03:01:52;;;;;;;10.55;3.00;;;1.90;99.90;;;;;;5072721;28;20083;-70
2022/03/19 03:04:18;;;;;;;11.13;2.63;;;2.50;99.90;;;;;;5072677;28;20092;-69
2022/03/19 03:06:46;;;;;;;11.63;3.78;;;1.80;99.90;;;;;;5072419;28;20040;-70
2022/03/19 03:09:13;;;;;;;8.05;2.72;;;1.80;99.90;;;;;;5072500;28;20052;-72
2022/03/19 03:11:40;;;;;;;12.27;3.42;;;1.80;99.90;;;;;;5072565;28;20044;-71
2022/03/19 03:14:08;;;;;;;13.38;3.53;;;1.80;99.90;;;;;;5071023;28;20476;-71
2022/03/19 03:16:34;;;;;;;12.60;3.10;;;1.70;99.90;;;;;;5072596;28;20463;-71
2022/03/19 03:19:02;;;;;;;14.25;3.30;;;1.80;99.90;;;;;;5072471;28;20123;-70
2022/03/19 03:21:28;;;;;;;11.15;3.55;;;1.80;99.90;;;;;;5071965;28;20479;-71
2022/03/19 03:23:54;;;;;;;11.32;3.42;;;1.90;99.90;;;;;;5071239;28;20076;-72
2022/03/19 03:26:21;;;;;;;12.30;3.67;;;1.80;99.90;;;;;;5072727;28;20040;-71
2022/03/19 03:28:46;;;;;;;10.93;3.50;;;1.90;99.90;;;;;;5070800;28;20040;-71
2022/03/19 03:31:12;;;;;;;15.13;3.67;;;1.90;99.90;;;;;;5072451;28;20049;-72
2022/03/19 03:33:38;;;;;;;13.07;4.00;;;1.90;99.90;;;;;;5072399;28;20107;-70
2022/03/19 03:36:03;;;;;;;16.60;4.07;;;1.90;99.90;;;;;;5072675;28;20079;-71
2022/03/19 03:38:30;;;;;;;10.82;3.65;;;1.90;99.90;;;;;;5075245;28;20540;-71
2022/03/19 03:40:56;;;;;;;12.15;4.45;;;2.20;99.90;;;;;;5076556;28;20399;-71
2022/03/19 03:43:21;;;;;;;15.95;3.85;;;1.90;99.90;;;;;;5076526;28;20036;-71
2022/03/19 03:45:48;;;;;;;10.98;3.65;;;1.80;99.90;;;;;;5075890;28;20041;-70
2022/03/19 03:48:13;;;;;;;12.48;3.90;;;1.80;99.90;;;;;;5076279;28;20077;-72
2022/03/19 03:50:40;;;;;;;11.13;3.53;;;1.80;99.90;;;;;;5074968;28;20127;-70
2022/03/19 03:53:07;;;;;;;12.52;3.75;;;1.70;99.90;;;;;;5076253;28;20039;-71
2022/03/19 03:55:34;;;;;;;14.98;4.35;;;1.70;99.90;;;;;;5076104;28;20086;-71
2022/03/19 03:58:01;;;;;;;12.13;4.20;;;1.60;99.90;;;;;;5076157;28;20464;-72
2022/03/19 04:00:27;;;;;;;13.60;3.75;;;1.60;99.90;;;;;;5075746;28;20047;-70
2022/03/19 04:02:53;;;;;;;13.60;4.13;;;1.60;99.90;;;;;;5075783;28;20049;-70
2022/03/19 04:05:19;;;;;;;15.38;5.00;;;1.60;99.90;;;;;;5075891;28;20128;-70
2022/03/19 04:07:45;;;;;;;14.68;4.70;;;1.60;99.90;;;;;;5075693;28;20123;-71
2022/03/19 04:10:12;;;;;;;12.15;3.83;;;1.60;99.90;;;;;;5075991;28;20048;-71
2022/03/19 04:12:38;;;;;;;10.93;4.25;;;1.60;99.90;;;;;;5074428;28;20101;-71
2022/03/19 04:15:07;;;;;;;16.90;4.35;;;1.50;99.90;;;;;;5075641;28;20044;-69
2022/03/19 04:17:33;;;;;;;13.80;4.07;;;1.50;99.90;;;;;;5075308;28;20076;-71
2022/03/19 04:19:58;;;;;;;11.23;3.90;;;1.50;99.90;;;;;;5075684;28;20037;-71
2022/03/19 04:22:32;;;;;;;12.50;4.20;;;1.40;99.90;;;;;;5075294;28;20071;-71
2022/03/19 04:24:57;;;;;;;11.25;3.88;;;1.40;99.90;;;;;;5075635;28;20056;-70
2022/03/19 04:27:23;;;;;;;11.30;4.32;;;1.30;99.90;;;;;;5074268;28;20089;-70
2022/03/19 04:29:49;;;;;;;12.57;4.25;;;1.30;99.90;;;;;;5075666;28;20036;-71
2022/03/19 04:32:15;;;;;;;13.65;4.53;;;1.30;99.90;;;;;;5074887;28;20048;-71
2022/03/19 04:34:40;;;;;;;13.60;3.97;;;1.40;99.90;;;;;;5075333;28;20036;-70
2022/03/19 04:37:06;;;;;;;16.88;5.25;;;1.40;99.90;;;;;;5075112;28;20067;-69
2022/03/19 04:39:32;;;;;;;16.23;5.32;;;1.40;99.90;;;;;;5075319;28;20169;-71
2022/03/19 04:41:58;;;;;;;15.43;4.95;;;1.40;99.90;;;;;;5075401;28;20447;-70
2022/03/19 04:44:23;;;;;;;12.52;4.72;;;1.40;99.90;;;;;;5075137;28;20048;-71
2022/03/19 04:46:49;;;;;;;17.58;6.15;;;1.40;99.90;;;;;;5074396;28;20047;-69
2022/03/19 04:49:14;;;;;;;17.20;5.63;;;1.30;99.90;;;;;;5073298;28;20071;-71
2022/03/19 04:51:41;;;;;;;18.42;5.88;;;1.30;99.90;;;;;;5074921;28;20090;-70
2022/03/19 04:54:07;;;;;;;18.60;5.60;;;1.50;99.90;;;;;;5075149;28;20446;-71
2022/03/19 04:56:33;;;;;;;18.10;5.85;;;1.30;99.90;;;;;;5056979;28;20088;-71
2022/03/19 04:59:00;;;;;;;16.40;5.50;;;1.30;99.90;;;;;;5074730;28;20082;-71
2022/03/19 05:01:31;;;;;;;13.32;4.35;;;1.30;99.90;;;;;;5074930;28;20052;-71
2022/03/19 05:03:57;;;;;;;22.75;4.30;;;1.30;99.90;;;;;;5074472;28;20040;-70
2022/03/19 05:06:22;;;;;;;14.35;5.10;;;1.30;99.90;;;;;;5073563;28;20496;-71
2022/03/19 05:11:34;;;;;;;19.33;4.97;;;1.30;99.90;;;;;;5073348;28;20055;-71
2022/03/19 05:13:59;;;;;;;15.88;4.28;;;1.30;99.90;;;;;;5074474;28;20094;-71
2022/03/19 05:16:25;;;;;;;15.95;5.03;;;1.20;99.90;;;;;;5074742;28;20422;-71
2022/03/19 05:18:51;;;;;;;9.50;2.80;;;1.20;99.90;;;;;;5056899;28;20086;-71
2022/03/19 05:21:17;;;;;;;11.07;4.07;;;1.20;99.90;;;;;;5074632;28;20465;-70
2022/03/19 05:23:45;;;;;;;12.88;3.50;;;1.20;99.90;;;;;;5072895;28;20049;-72
2022/03/19 05:26:11;;;;;;;10.38;3.17;;;1.20;99.90;;;;;;5074497;28;20045;-71
2022/03/19 05:28:36;;;;;;;11.77;3.80;;;1.20;99.90;;;;;;5074039;28;20043;-71
2022/03/19 05:31:03;;;;;;;11.55;2.92;;;2.10;99.90;;;;;;5074284;28;20045;-71
2022/03/19 05:34:30;;;;;;;16.30;3.53;;;1.40;99.90;;;;;;5074125;28;20585;-72
2022/03/19 05:36:27;;;;;;;9.57;3.40;;;1.60;99.90;;;;;;5063901;28;20044;-72
2022/03/19 05:38:53;;;;;;;12.30;3.47;;;1.70;99.90;;;;;;5073208;28;20550;-71
2022/03/19 05:41:19;;;;;;;8.07;2.80;;;1.80;99.90;;;;;;5073889;28;20060;-71
2022/03/19 05:43:44;;;;;;;10.02;3.42;;;2.00;99.90;;;;;;5073961;28;20060;-72
2022/03/19 05:46:10;;;;;;;13.50;4.05;;;2.80;99.90;;;;;;5073880;28;20044;-71
2022/03/19 05:48:36;;;;;;;8.65;3.35;;;2.20;99.90;;;;;;5073834;28;20040;-72
2022/03/19 05:51:01;;;;;;;9.18;3.33;;;2.30;99.90;;;;;;5073550;28;20102;-74
2022/03/19 05:53:28;;;;;;;11.75;3.97;;;2.40;99.90;;;;;;5072517;28;20119;-71
2022/03/19 05:55:54;;;;;;;15.30;4.32;;;2.50;99.90;;;;;;5072427;28;20051;-72
2022/03/19 05:58:19;;;;;;;14.95;4.80;;;2.50;99.90;;;;;;5073768;28;20458;-70
2022/03/19 06:00:46;;;;;;;10.60;3.42;;;2.60;99.90;;;;;;5072085;28;20060;-70
2022/03/19 06:03:11;;;;;;;10.60;3.85;;;2.70;99.90;;;;;;5072546;28;20048;-71
2022/03/19 06:05:38;;;;;;;10.82;3.83;;;2.70;99.90;;;;;;5073427;28;20044;-71
2022/03/19 06:08:04;;;;;;;15.18;3.20;;;2.70;99.90;;;;;;5073625;28;20119;-71
2022/03/19 06:10:30;;;;;;;13.00;3.78;;;2.80;99.90;;;;;;5073447;28;20465;-71
2022/03/19 06:12:55;;;;;;;10.50;3.92;;;2.80;99.90;;;;;;5072171;28;20076;-72
2022/03/19 06:15:21;;;;;;;7.35;3.20;;;2.90;99.90;;;;;;5072579;28;20484;-71
2022/03/19 06:17:47;;;;;;;12.02;3.42;;;2.90;99.90;;;;;;5073167;28;20041;-70
2022/03/19 06:20:12;;;;;;;11.27;3.80;;;3.00;99.90;;;;;;5073455;28;20036;-70
2022/03/19 06:22:41;;;;;;;11.55;3.53;;;3.00;99.90;;;;;;5071478;28;20097;-70
2022/03/19 06:25:08;;;;;;;9.02;3.30;;;3.00;99.90;;;;;;5073233;28;20048;-71
2022/03/19 06:27:33;;;;;;;9.30;3.22;;;3.00;99.90;;;;;;5073070;28;20499;-71
2022/03/19 06:29:59;;;;;;;16.05;4.28;;;3.10;99.90;;;;;;5073048;28;20044;-72
2022/03/19 06:32:24;;;;;;;10.95;3.15;;;3.20;99.90;;;;;;5073100;28;20056;-72
2022/03/19 06:34:50;;;;;;;9.57;3.65;;;3.20;99.90;;;;;;5073029;28;20051;-71
2022/03/19 06:37:22;;;;;;;12.77;3.47;;;3.20;99.90;;;;;;5072660;28;20040;-71
2022/03/19 06:39:49;;;;;;;9.80;2.30;;;3.30;99.90;;;;;;5071774;28;20063;-71
2022/03/19 06:42:15;;;;;;;17.48;4.57;;;3.30;99.90;;;;;;5071862;28;20066;-71
2022/03/19 06:44:41;;;;;;;9.13;3.13;;;3.40;99.90;;;;;;5072883;28;20044;-71
2022/03/19 06:47:07;;;;;;;10.20;3.05;;;3.40;99.90;;;;;;5072801;28;20048;-71
2022/03/19 06:49:32;;;;;;;7.93;2.97;;;3.50;99.90;;;;;;5071867;28;20462;-72
2022/03/19 06:51:58;;;;;;;7.75;2.53;;;3.50;99.90;;;;;;5071551;28;20396;-72
2022/03/19 06:54:24;;;;;;;8.65;3.58;;;3.50;99.90;;;;;;5054343;28;20063;-71
2022/03/19 06:56:49;;;;;;;14.00;3.35;;;3.60;99.90;;;;;;5072705;28;20109;-71
2022/03/19 06:59:15;;;;;;;9.68;3.53;;;4.10;99.90;;;;;;5071620;28;20066;-72
2022/03/19 07:01:41;;;;;;;14.95;3.45;;;4.30;99.90;;;;;;5072752;28;20090;-73
2022/03/19 07:04:06;;;;;;;17.45;3.15;;;3.70;99.90;;;;;;5072407;28;20053;-71
2022/03/19 07:06:32;;;;;;;9.50;3.20;;;3.80;99.90;;;;;;5072723;28;20048;-71
2022/03/19 07:08:58;;;;;;;12.43;3.90;;;3.90;99.90;;;;;;5072469;28;20377;-71
2022/03/19 07:11:24;;;;;;;10.38;3.45;;;4.00;99.90;;;;;;5071044;28;20128;-72
2022/03/19 07:13:49;;;;;;;6.35;2.45;;;4.00;99.90;;;;;;5072636;28;20059;-71
2022/03/19 07:16:15;;;;;;;8.90;3.13;;;4.10;99.90;;;;;;5072553;28;20051;-72
2022/03/19 07:18:42;;;;;;;20.20;3.92;;;4.20;99.90;;;;;;5072392;28;20082;-72
2022/03/19 07:21:09;;;;;;;14.07;3.75;;;4.20;99.90;;;;;;5072617;28;20117;-72
2022/03/19 07:23:35;;;;;;;9.50;3.50;;;4.30;99.90;;;;;;5072389;28;20060;-72
2022/03/19 07:26:01;;;;;;;10.00;2.88;;;4.40;99.90;;;;;;5054064;28;20079;-72
2022/03/19 07:28:27;;;;;;;12.00;3.38;;;4.40;99.90;;;;;;5072545;28;20059;-72
2022/03/19 07:30:53;;;;;;;8.02;2.30;;;4.60;99.90;;;;;;5071302;28;20051;-71
2022/03/19 07:33:19;;;;;;;16.90;3.20;;;4.60;99.90;;;;;;5072281;28;20040;-71
2022/03/19 07:35:44;;;;;;;6.30;2.58;;;4.70;99.90;;;;;;5071087;28;20052;-72
2022/03/19 07:38:11;;;;;;;10.50;3.35;;;4.80;99.90;;;;;;5071240;28;20396;-71
2022/03/19 07:43:25;;;;;;;13.95;2.65;;;5.00;99.90;;;;;;5071039;28;20102;-71
2022/03/19 07:45:51;;;;;;;23.58;3.95;;;5.10;99.90;;;;;;5072266;28;20559;-72
2022/03/19 07:48:18;;;;;;;15.07;3.38;;;5.20;99.90;;;;;;5072056;28;20084;-72
2022/03/19 07:50:44;;;;;;;7.47;2.50;;;5.30;99.90;;;;;;5072360;28;20044;-71
2022/03/19 07:53:10;;;;;;;9.57;2.78;;;5.30;99.90;;;;;;5072172;28;20381;-71
2022/03/19 07:55:37;;;;;;;9.13;3.22;;;5.40;99.90;;;;;;5070702;28;20052;-73
2022/03/19 07:58:04;;;;;;;7.60;2.38;;;5.50;99.90;;;;;;5072183;28;20043;-72
2022/03/19 08:00:30;;;;;;;7.55;2.97;;;5.50;99.90;;;;;;5072163;28;20041;-76
2022/03/19 08:02:56;;;;;;;11.50;2.58;;;5.60;99.90;;;;;;5071873;28;20037;-71
2022/03/19 08:05:21;;;;;;;13.38;3.22;;;5.70;99.90;;;;;;5072290;28;20515;-72
2022/03/19 08:07:47;;;;;;;12.60;3.47;;;5.80;99.90;;;;;;5072050;28;20085;-71
2022/03/19 08:10:13;;;;;;;6.95;2.17;;;5.90;99.90;;;;;;5072221;28;20055;-71
2022/03/19 08:12:41;;;;;;;11.95;3.17;;;6.00;99.90;;;;;;5071684;28;20045;-72
2022/03/19 08:15:08;;;;;;;12.32;2.88;;;6.10;99.90;;;;;;5072005;28;20044;-71
2022/03/19 08:17:38;;;;;;;6.40;2.13;;;6.10;99.90;;;;;;5071606;28;20126;-73
2022/03/19 08:20:08;;;;;;;7.88;2.58;;;6.20;99.90;;;;;;5072032;28;20178;-75
2022/03/19 08:22:35;;;;;;;9.80;3.08;;;6.30;99.90;;;;;;5071212;28;20056;-77
2022/03/19 08:25:01;;;;;;;7.05;2.42;;;6.40;99.90;;;;;;5075469;28;20063;-71
2022/03/19 08:27:27;;;;;;;9.30;2.63;;;6.40;99.90;;;;;;5075198;28;20090;-75
2022/03/19 08:29:54;;;;;;;12.23;2.38;;;6.50;99.90;;;;;;5075329;28;20100;-72
2022/03/19 08:32:22;;;;;;;6.45;1.80;;;6.60;99.90;;;;;;5075460;28;20127;-74
2022/03/19 08:34:48;;;;;;;11.75;3.30;;;6.70;99.90;;;;;;5074388;28;20036;-73
2022/03/19 08:37:13;;;;;;;13.52;3.17;;;6.80;99.90;;;;;;5075330;28;20400;-69
2022/03/19 08:42:23;;;;;;;5.22;1.98;;;7.20;99.90;;;;;;5075378;28;20053;-72
2022/03/19 08:44:49;;;;;;;10.95;2.80;;;7.50;99.90;;;;;;5074443;28;20052;-71
2022/03/19 08:47:15;;;;;;;8.48;1.55;;;7.10;99.90;;;;;;5074107;28;20048;-72
2022/03/19 08:49:41;;;;;;;7.18;2.65;;;7.10;99.90;;;;;;5073957;28;20102;-71
2022/03/19 08:52:06;;;;;;;6.65;2.08;;;7.30;99.90;;;;;;5075114;28;20074;-71
2022/03/19 08:54:33;;;;;;;13.40;2.97;;;7.30;99.90;;;;;;5075163;28;20436;-73
2022/03/19 08:56:58;;;;;;;6.43;2.08;;;7.30;99.90;;;;;;5075385;28;20127;-72
2022/03/19 08:59:24;;;;;;;6.10;1.90;;;7.40;99.90;;;;;;5073121;28;20131;-75
2022/03/19 09:01:52;;;;;;;12.23;2.47;;;7.50;99.90;;;;;;5074949;28;20040;-73
2022/03/19 09:04:18;;;;;;;13.45;2.33;;;7.70;99.90;;;;;;5073037;28;20504;-72
2022/03/19 09:06:44;;;;;;;9.85;2.30;;;7.80;99.90;;;;;;5073774;28;20044;-72
2022/03/19 09:09:13;;;;;;;13.52;2.47;;;7.80;99.90;;;;;;5074625;28;20523;-72
2022/03/19 09:11:39;;;;;;;11.60;2.08;;;7.80;99.90;;;;;;5074722;28;20094;-72
2022/03/19 09:14:06;;;;;;;5.75;1.70;;;7.90;99.90;;;;;;5073418;28;20400;-71
2022/03/19 09:16:34;;;;;;;9.02;2.05;;;8.00;99.90;;;;;;5073319;28;20056;-71
2022/03/19 09:19:00;;;;;;;12.20;2.42;;;8.00;99.90;;;;;;5074468;28;20057;-71
2022/03/19 09:21:29;;;;;;;8.15;2.42;;;8.10;99.90;;;;;;5073226;28;20056;-70
2022/03/19 09:23:58;;;;;;;10.90;3.42;;;8.40;99.90;;;;;;5073208;28;20044;-72
2022/03/19 09:26:24;;;;;;;11.50;1.58;;;8.20;99.90;;;;;;5074378;28;20052;-71
2022/03/19 09:28:51;;;;;;;6.47;1.75;;;8.30;99.90;;;;;;5074154;28;20072;-75
2022/03/19 09:31:19;;;;;;;5.50;1.50;;;8.40;99.90;;;;;;5073806;28;20125;-72
2022/03/19 09:33:46;;;;;;;6.25;1.75;;;8.50;99.90;;;;;;5074117;28;20111;-74
2022/03/19 09:36:13;;;;;;;12.27;2.38;;;8.50;99.90;;;;;;5074194;28;20119;-75
2022/03/19 09:38:40;;;;;;;9.07;1.38;;;8.60;99.90;;;;;;5074088;28;20045;-70
2022/03/19 09:41:06;;;;;;;6.30;1.65;;;8.70;99.90;;;;;;5074200;28;20488;-71
2022/03/19 09:43:32;;;;;;;13.93;1.98;;;8.80;99.90;;;;;;5072829;28;20091;-76
2022/03/19 09:45:58;;;;;;;10.73;2.13;;;8.80;99.90;;;;;;5074366;28;20049;-72
2022/03/19 09:48:24;;;;;;;7.05;1.80;;;8.90;99.90;;;;;;5074082;28;20091;-71
2022/03/19 09:50:51;;;;;;;11.20;1.67;;;9.00;99.90;;;;;;5072637;28;20044;-75
2022/03/19 09:53:19;;;;;;;7.00;1.27;;;9.00;99.90;;;;;;5073861;28;20142;-70
2022/03/19 09:55:46;;;;;;;9.10;1.63;;;9.10;99.90;;;;;;5073840;28;20110;-76
2022/03/19 09:58:15;;;;;;;4.78;1.45;;;9.10;99.90;;;;;;5073766;28;20044;-76
2022/03/19 10:00:41;;;;;;;6.07;1.88;;;9.10;99.90;;;;;;5072722;28;20392;-71
2022/03/19 10:03:09;;;;;;;5.13;1.48;;;9.10;99.90;;;;;;5071873;28;20114;-77
2022/03/19 10:08:39;;;;;;;6.80;1.40;;;9.40;99.90;;;;;;5073915;28;20127;-71
2022/03/19 10:11:16;;;;;;;5.80;1.40;;;9.40;99.90;;;;;;5073607;28;20420;-70
2022/03/19 10:13:44;;;;;;;7.22;2.03;;;9.50;99.90;;;;;;5073720;28;20076;-71
2022/03/19 10:16:28;;;;;;;8.00;1.92;;;9.60;99.90;;;;;;5073480;28;20051;-70
2022/03/19 10:19:12;;;;;;;10.00;2.88;;;9.70;99.90;;;;;;5073413;28;20098;-71
2022/03/19 10:21:40;;;;;;;12.85;3.20;;;9.80;99.90;;;;;;5055043;28;20060;-72
2022/03/19 10:24:24;;;;;;;14.32;2.72;;;9.90;99.90;;;;;;5071935;28;20071;-72
2022/03/19 10:26:50;;;;;;;10.23;2.78;;;9.80;99.90;;;;;;5073164;28;20049;-71
2022/03/19 10:29:25;;;;;;;9.38;2.78;;;10.10;99.90;;;;;;5073117;28;20484;-71
2022/03/19 10:31:51;;;;;;;9.82;2.47;;;9.90;99.90;;;;;;5073104;28;20091;-72
2022/03/19 10:34:17;;;;;;;10.77;2.42;;;9.90;99.90;;;;;;5072637;28;20554;-73
2022/03/19 10:36:44;;;;;;;10.18;2.78;;;9.90;99.90;;;;;;5073040;28;20049;-71
2022/03/19 10:39:21;;;;;;;8.20;2.13;;;10.00;99.90;;;;;;5073025;28;20044;-71
2022/03/19 10:41:51;;;;;;;9.25;2.70;;;10.10;99.90;;;;;;5073021;28;20050;-71
2022/03/19 10:44:19;;;;;;;8.10;2.10;;;10.20;99.90;;;;;;5072954;28;20051;-75
2022/03/19 10:46:53;;;;;;;10.57;2.25;;;10.30;99.00;;;;;;5072091;28;20090;-72
2022/03/19 10:49:24;;;;;;;8.18;2.40;;;10.30;98.00;;;;;;5072657;28;20447;-77
2022/03/19 10:51:52;;;;;;;10.73;2.15;;;10.40;97.40;;;;;;5072682;28;20041;-76
2022/03/19 10:54:18;;;;;;;10.57;2.08;;;10.40;96.10;;;;;;5072826;28;20036;-73
2022/03/19 10:56:46;;;;;;;5.05;1.50;;;10.50;96.20;;;;;;5072726;28;20074;-73
2022/03/19 10:59:12;;;;;;;6.85;1.67;;;10.40;96.40;;;;;;5072598;28;20124;-76
2022/03/19 11:01:38;;;;;;;5.68;1.42;;;10.50;96.60;;;;;;5072847;28;20072;-77
2022/03/19 11:04:06;;;;;;;5.35;1.30;;;10.60;96.20;;;;;;5072482;28;20052;-71
2022/03/19 11:06:43;;;;;;;4.07;1.40;;;10.70;95.50;;;;;;5072637;28;20090;-71
2022/03/19 11:09:11;;;;;;;3.85;0.95;;;10.70;95.30;;;;;;5072650;28;20051;-71
2022/03/19 11:11:57;;;;;;;6.75;1.50;;;10.70;94.10;;;;;;5072511;28;20037;-75
2022/03/19 11:14:26;;;;;;;7.55;2.00;;;10.80;94.50;;;;;;5072509;28;20040;-77
2022/03/19 11:17:25;;;;;;;6.85;1.52;;;10.80;92.10;;;;;;5071315;28;20076;-72
2022/03/19 11:19:56;;;;;;;9.80;2.35;;;10.80;91.70;;;;;;5072428;28;20123;-71
2022/03/19 11:22:22;;;;;;;7.73;1.70;;;10.90;92.10;;;;;;5072065;28;20441;-75
2022/03/19 11:25:10;;;;;;;8.05;2.13;;;11.00;91.20;;;;;;5072518;28;20095;-70
2022/03/19 11:27:38;;;;;;;5.30;1.60;;;11.10;90.20;;;;;;5072528;28;20170;-72
2022/03/19 11:30:05;;;;;;;6.38;1.60;;;11.00;86.40;;;;;;5072547;28;20040;-72
2022/03/19 11:32:31;;;;;;;6.13;1.80;;;11.10;87.50;;;;;;5072354;28;20055;-72
2022/03/19 11:34:59;;;;;;;4.60;1.35;;;11.10;88.60;;;;;;5072354;28;20042;-72
2022/03/19 11:38:03;;;;;;;6.75;1.33;;;11.20;88.60;;;;;;5072178;28;20036;-72
2022/03/19 11:40:35;;;;;;;6.22;1.30;;;11.30;86.70;;;;;;5072473;28;20045;-71
2022/03/19 11:43:06;;;;;;;5.47;1.60;;;11.40;84.60;;;;;;5071091;28;20051;-70
2022/03/19 11:45:56;;;;;;;4.85;1.48;;;11.30;86.60;;;;;;5072260;28;20048;-72
2022/03/19 11:48:39;;;;;;;7.35;1.42;;;11.40;85.60;;;;;;5072455;28;20154;-72
2022/03/19 11:51:25;;;;;;;5.93;1.40;;;11.60;87.20;;;;;;5072396;28;20111;-69
2022/03/19 11:54:12;;;;;;;6.30;1.40;;;11.60;86.70;;;;;;5071810;28;20052;-71
2022/03/19 11:56:41;;;;;;;3.90;1.25;;;11.60;85.30;;;;;;5073168;28;20396;-72
2022/03/19 11:59:16;;;;;;;5.40;1.15;;;11.60;82.80;;;;;;5076145;28;20044;-72
2022/03/19 12:01:54;;;;;;;4.85;1.10;;;11.70;80.60;;;;;;5074592;28;20048;-72
2022/03/19 12:04:24;;;;;;;4.80;1.20;;;11.70;78.00;;;;;;5075800;28;20052;-72
2022/03/19 12:06:57;;;;;;;3.92;1.08;;;12.10;77.20;;;;;;5076149;28;20408;-71
2022/03/19 12:09:38;;;;;;;5.88;1.33;;;11.80;77.60;;;;;;5073579;28;20060;-71
2022/03/19 12:12:15;;;;;;;3.72;1.30;;;11.80;77.60;;;;;;5075832;28;20045;-71
2022/03/19 12:14:42;;;;;;;4.55;1.35;;;11.80;74.60;;;;;;5075560;28;20041;-70
2022/03/19 12:17:27;;;;;;;8.00;1.60;;;11.90;75.40;;;;;;5075580;28;20044;-70
2022/03/19 12:19:55;;;;;;;6.00;1.30;;;11.90;77.20;;;;;;5075687;28;20128;-73
2022/03/19 12:22:30;;;;;;;2.97;1.00;;;11.90;74.90;;;;;;5075359;28;20056;-70
2022/03/19 12:25:06;;;;;;;4.28;1.27;;;12.00;74.50;;;;;;5075126;28;20052;-72
2022/03/19 12:27:32;;;;;;;5.68;1.35;;;12.10;75.90;;;;;;5075436;28;20048;-72
2022/03/19 12:29:58;;;;;;;5.50;1.30;;;12.10;75.40;;;;;;5075690;28;20045;-73
2022/03/19 12:32:24;;;;;;;7.05;1.60;;;12.10;74.00;;;;;;5075598;28;20043;-71
2022/03/19 12:35:00;;;;;;;8.43;1.33;;;12.00;74.40;;;;;;5075443;28;20048;-73
2022/03/19 12:37:25;;;;;;;3.20;1.10;;;12.00;73.00;;;;;;5075428;28;20045;-72
2022/03/19 12:39:59;;;;;;;5.28;1.33;;;12.20;74.30;;;;;;5075543;28;20365;-73
2022/03/19 12:42:32;;;;;;;8.40;1.50;;;12.20;75.40;;;;;;5073801;28;20126;-72
2022/03/19 12:45:03;;;;;;;4.40;1.13;;;12.50;75.30;;;;;;5075397;28;20485;-73
2022/03/19 12:47:29;;;;;;;7.40;1.42;;;12.40;76.80;;;;;;5075413;28;20084;-70
2022/03/19 12:49:55;;;;;;;6.03;1.60;;;12.30;75.80;;;;;;5075166;28;20041;-77
2022/03/19 12:52:22;;;;;;;4.97;1.25;;;12.30;76.20;;;;;;5057525;28;20047;-72
2022/03/19 12:54:55;;;;;;;7.68;1.63;;;12.30;75.30;;;;;;5074718;28;20384;-74
2022/03/19 12:57:23;;;;;;;6.22;1.58;;;12.20;75.70;;;;;;5074948;28;20446;-76
2022/03/19 12:59:57;;;;;;;4.38;1.08;;;12.30;75.90;;;;;;5074849;28;20083;-72
2022/03/19 13:02:25;;;;;;;8.18;2.22;;;12.30;77.00;;;;;;5074900;28;20045;-73
2022/03/19 13:04:51;;;;;;;6.10;1.30;;;12.30;74.30;;;;;;5073613;28;20048;-77
2022/03/19 13:07:18;;;;;;;6.00;1.23;;;12.20;73.40;;;;;;5073491;28;20083;-78